Lone, Kentucky
Current Conditions -  °F | °C
As of 10:26 AM on Thursday 23 Oct 2014 (Local Time) from KJKL Reporting Station
Overcast Overcast  
Wind Chill: 10°   Ceiling: 3000
Heat Index: 10°   Visibility: 10mi
Dew Point:   Wind: 0mph
Humidity: 68%   Direction: NA
Pressure: 30.24"   Gusts: NA
Location:  37.53°N, 83.6°W
Report Text: KJKL 231426Z AUTO 00000KT 10SM OVC030 10/04 A3024 RMK AO2 T01000044
Loading
Personal Weather Stations






























Interactive Weather Map
Tropical Storm Tracking
New forecast layout! Learn more

10-Day Weather Forecast

Advertisements
Track Severe Weather on mobile